sensor_id;sensor_type;location;lat;lon;timestamp;P1;durP1;ratioP1;P2;durP2;ratioP2
71236;SDS011;58984;51.960;5.582;2022-11-02T00:03:47;8.73;;;3.10;;
71236;SDS011;58984;51.960;5.582;2022-11-02T00:06:13;10.05;;;3.72;;
71236;SDS011;58984;51.960;5.582;2022-11-02T00:08:38;6.70;;;3.38;;
71236;SDS011;58984;51.960;5.582;2022-11-02T00:11:04;14.02;;;3.28;;
71236;SDS011;58984;51.960;5.582;2022-11-02T00:13:30;11.82;;;3.38;;
71236;SDS011;58984;51.960;5.582;2022-11-02T00:15:56;6.32;;;3.08;;
71236;SDS011;58984;51.960;5.582;2022-11-02T00:18:24;11.63;;;3.15;;
71236;SDS011;58984;51.960;5.582;2022-11-02T00:20:50;7.03;;;2.90;;
71236;SDS011;58984;51.960;5.582;2022-11-02T00:23:15;7.88;;;2.78;;
71236;SDS011;58984;51.960;5.582;2022-11-02T00:25:42;7.18;;;2.50;;
71236;SDS011;58984;51.960;5.582;2022-11-02T00:28:11;6.00;;;2.80;;
71236;SDS011;58984;51.960;5.582;2022-11-02T00:30:38;7.28;;;3.00;;
71236;SDS011;58984;51.960;5.582;2022-11-02T00:33:04;11.23;;;2.80;;
71236;SDS011;58984;51.960;5.582;2022-11-02T00:35:29;4.72;;;2.05;;
71236;SDS011;58984;51.960;5.582;2022-11-02T00:37:55;6.95;;;2.55;;
71236;SDS011;58984;51.960;5.582;2022-11-02T00:40:20;5.50;;;2.25;;
71236;SDS011;58984;51.960;5.582;2022-11-02T00:42:46;9.73;;;2.72;;
71236;SDS011;58984;51.960;5.582;2022-11-02T00:45:12;6.35;;;2.35;;
71236;SDS011;58984;51.960;5.582;2022-11-02T00:47:37;4.07;;;2.15;;
71236;SDS011;58984;51.960;5.582;2022-11-02T00:50:03;6.50;;;2.40;;
71236;SDS011;58984;51.960;5.582;2022-11-02T00:52:29;8.20;;;2.40;;
71236;SDS011;58984;51.960;5.582;2022-11-02T00:54:55;7.97;;;2.60;;
71236;SDS011;58984;51.960;5.582;2022-11-02T00:57:21;6.00;;;2.17;;
71236;SDS011;58984;51.960;5.582;2022-11-02T00:59:47;5.63;;;2.42;;
71236;SDS011;58984;51.960;5.582;2022-11-02T01:02:12;5.50;;;2.15;;
71236;SDS011;58984;51.960;5.582;2022-11-02T01:04:38;5.82;;;2.28;;
71236;SDS011;58984;51.960;5.582;2022-11-02T01:07:04;5.85;;;2.33;;
71236;SDS011;58984;51.960;5.582;2022-11-02T01:09:29;4.57;;;2.15;;
71236;SDS011;58984;51.960;5.582;2022-11-02T01:11:55;3.50;;;2.03;;
71236;SDS011;58984;51.960;5.582;2022-11-02T01:14:21;4.60;;;2.47;;
71236;SDS011;58984;51.960;5.582;2022-11-02T01:16:47;3.90;;;2.17;;
71236;SDS011;58984;51.960;5.582;2022-11-02T01:19:12;5.05;;;2.63;;
71236;SDS011;58984;51.960;5.582;2022-11-02T01:21:38;5.25;;;2.15;;
71236;SDS011;58984;51.960;5.582;2022-11-02T01:24:04;9.05;;;2.63;;
71236;SDS011;58984;51.960;5.582;2022-11-02T01:26:30;4.30;;;2.10;;
71236;SDS011;58984;51.960;5.582;2022-11-02T01:28:55;4.82;;;2.05;;
71236;SDS011;58984;51.960;5.582;2022-11-02T01:31:21;4.28;;;2.17;;
71236;SDS011;58984;51.960;5.582;2022-11-02T01:33:46;4.72;;;1.90;;
71236;SDS011;58984;51.960;5.582;2022-11-02T01:36:13;7.63;;;2.05;;
71236;SDS011;58984;51.960;5.582;2022-11-02T01:38:40;2.67;;;1.38;;
71236;SDS011;58984;51.960;5.582;2022-11-02T01:41:06;1.85;;;1.08;;
71236;SDS011;58984;51.960;5.582;2022-11-02T01:43:33;2.53;;;1.50;;
71236;SDS011;58984;51.960;5.582;2022-11-02T01:48:48;5.13;;;1.30;;
71236;SDS011;58984;51.960;5.582;2022-11-02T01:51:38;2.45;;;1.00;;
71236;SDS011;58984;51.960;5.582;2022-11-02T01:54:09;1.80;;;1.20;;
71236;SDS011;58984;51.960;5.582;2022-11-02T01:56:38;4.32;;;1.27;;
71236;SDS011;58984;51.960;5.582;2022-11-02T01:59:06;3.17;;;1.25;;
71236;SDS011;58984;51.960;5.582;2022-11-02T02:01:35;4.95;;;1.40;;
71236;SDS011;58984;51.960;5.582;2022-11-02T02:04:01;5.43;;;1.40;;
71236;SDS011;58984;51.960;5.582;2022-11-02T02:06:26;3.17;;;1.38;;
71236;SDS011;58984;51.960;5.582;2022-11-02T02:08:53;3.42;;;1.20;;
71236;SDS011;58984;51.960;5.582;2022-11-02T02:11:25;4.18;;;1.50;;
71236;SDS011;58984;51.960;5.582;2022-11-02T02:16:39;4.63;;;1.40;;
71236;SDS011;58984;51.960;5.582;2022-11-02T02:19:30;3.60;;;1.40;;
71236;SDS011;58984;51.960;5.582;2022-11-02T02:22:12;2.92;;;1.33;;
71236;SDS011;58984;51.960;5.582;2022-11-02T02:24:50;4.63;;;1.63;;
71236;SDS011;58984;51.960;5.582;2022-11-02T02:30:08;3.35;;;1.92;;
71236;SDS011;58984;51.960;5.582;2022-11-02T02:32:37;3.45;;;1.77;;
71236;SDS011;58984;51.960;5.582;2022-11-02T02:35:23;4.28;;;1.67;;
71236;SDS011;58984;51.960;5.582;2022-11-02T02:38:02;4.13;;;1.83;;
71236;SDS011;58984;51.960;5.582;2022-11-02T02:40:33;2.88;;;1.85;;
71236;SDS011;58984;51.960;5.582;2022-11-02T02:43:12;3.40;;;1.67;;
71236;SDS011;58984;51.960;5.582;2022-11-02T02:46:04;3.35;;;1.60;;
71236;SDS011;58984;51.960;5.582;2022-11-02T02:48:37;5.47;;;2.05;;
71236;SDS011;58984;51.960;5.582;2022-11-02T02:51:10;4.28;;;1.73;;
71236;SDS011;58984;51.960;5.582;2022-11-02T02:53:43;9.13;;;2.13;;
71236;SDS011;58984;51.960;5.582;2022-11-02T02:56:12;6.82;;;2.30;;
71236;SDS011;58984;51.960;5.582;2022-11-02T02:58:47;5.43;;;2.10;;
71236;SDS011;58984;51.960;5.582;2022-11-02T03:01:20;5.35;;;2.03;;
71236;SDS011;58984;51.960;5.582;2022-11-02T03:03:46;7.43;;;2.03;;
71236;SDS011;58984;51.960;5.582;2022-11-02T03:08:45;8.48;;;2.28;;
71236;SDS011;58984;51.960;5.582;2022-11-02T03:11:18;4.03;;;2.25;;
71236;SDS011;58984;51.960;5.582;2022-11-02T03:16:31;5.10;;;2.10;;
71236;SDS011;58984;51.960;5.582;2022-11-02T03:19:20;5.75;;;2.20;;
71236;SDS011;58984;51.960;5.582;2022-11-02T03:25:16;6.05;;;2.55;;
71236;SDS011;58984;51.960;5.582;2022-11-02T03:30:39;9.57;;;2.67;;
71236;SDS011;58984;51.960;5.582;2022-11-02T03:35:58;7.32;;;2.50;;
71236;SDS011;58984;51.960;5.582;2022-11-02T03:41:20;10.15;;;2.42;;
71236;SDS011;58984;51.960;5.582;2022-11-02T03:43:48;9.40;;;2.92;;
71236;SDS011;58984;51.960;5.582;2022-11-02T03:46:19;5.65;;;2.63;;
71236;SDS011;58984;51.960;5.582;2022-11-02T03:48:46;7.68;;;2.75;;
71236;SDS011;58984;51.960;5.582;2022-11-02T03:51:14;6.82;;;2.70;;
71236;SDS011;58984;51.960;5.582;2022-11-02T03:53:49;6.43;;;2.35;;
71236;SDS011;58984;51.960;5.582;2022-11-02T03:56:20;13.40;;;3.35;;
71236;SDS011;58984;51.960;5.582;2022-11-02T03:59:07;6.85;;;2.65;;
71236;SDS011;58984;51.960;5.582;2022-11-02T04:01:37;6.30;;;2.55;;
71236;SDS011;58984;51.960;5.582;2022-11-02T04:04:06;9.38;;;3.15;;
71236;SDS011;58984;51.960;5.582;2022-11-02T04:06:32;7.72;;;3.03;;
71236;SDS011;58984;51.960;5.582;2022-11-02T04:08:58;9.45;;;2.78;;
71236;SDS011;58984;51.960;5.582;2022-11-02T04:11:24;7.70;;;2.65;;
71236;SDS011;58984;51.960;5.582;2022-11-02T04:14:08;6.75;;;2.55;;
71236;SDS011;58984;51.960;5.582;2022-11-02T04:16:52;8.07;;;2.67;;
71236;SDS011;58984;51.960;5.582;2022-11-02T04:19:38;6.55;;;3.13;;
71236;SDS011;58984;51.960;5.582;2022-11-02T04:22:04;14.25;;;3.40;;
71236;SDS011;58984;51.960;5.582;2022-11-02T04:24:48;7.70;;;3.20;;
71236;SDS011;58984;51.960;5.582;2022-11-02T04:27:32;9.70;;;2.97;;
71236;SDS011;58984;51.960;5.582;2022-11-02T04:29:58;7.75;;;3.30;;
71236;SDS011;58984;51.960;5.582;2022-11-02T04:32:24;10.68;;;3.38;;
71236;SDS011;58984;51.960;5.582;2022-11-02T04:35:08;7.07;;;2.72;;
71236;SDS011;58984;51.960;5.582;2022-11-02T04:37:40;9.85;;;2.95;;
71236;SDS011;58984;51.960;5.582;2022-11-02T04:40:25;10.95;;;2.92;;
71236;SDS011;58984;51.960;5.582;2022-11-02T04:42:51;7.18;;;2.95;;
71236;SDS011;58984;51.960;5.582;2022-11-02T04:45:17;10.93;;;3.33;;
71236;SDS011;58984;51.960;5.582;2022-11-02T04:47:43;7.63;;;3.00;;
71236;SDS011;58984;51.960;5.582;2022-11-02T04:50:09;8.15;;;2.75;;
71236;SDS011;58984;51.960;5.582;2022-11-02T04:52:35;8.07;;;3.50;;
71236;SDS011;58984;51.960;5.582;2022-11-02T04:55:01;9.57;;;3.50;;
71236;SDS011;58984;51.960;5.582;2022-11-02T04:57:26;4.63;;;3.10;;
71236;SDS011;58984;51.960;5.582;2022-11-02T04:59:52;7.55;;;3.55;;
71236;SDS011;58984;51.960;5.582;2022-11-02T05:02:17;7.47;;;3.30;;
71236;SDS011;58984;51.960;5.582;2022-11-02T05:04:43;6.85;;;2.83;;
71236;SDS011;58984;51.960;5.582;2022-11-02T05:07:09;9.45;;;3.22;;
71236;SDS011;58984;51.960;5.582;2022-11-02T05:09:35;6.57;;;3.20;;
71236;SDS011;58984;51.960;5.582;2022-11-02T05:12:01;14.45;;;3.72;;
71236;SDS011;58984;51.960;5.582;2022-11-02T05:14:29;8.80;;;3.67;;
71236;SDS011;58984;51.960;5.582;2022-11-02T05:16:55;18.50;;;3.67;;
71236;SDS011;58984;51.960;5.582;2022-11-02T05:19:21;9.88;;;3.20;;
71236;SDS011;58984;51.960;5.582;2022-11-02T05:21:47;9.95;;;3.30;;
71236;SDS011;58984;51.960;5.582;2022-11-02T05:24:13;6.95;;;2.88;;
71236;SDS011;58984;51.960;5.582;2022-11-02T05:26:38;8.77;;;3.30;;
71236;SDS011;58984;51.960;5.582;2022-11-02T05:29:04;9.07;;;3.22;;
71236;SDS011;58984;51.960;5.582;2022-11-02T05:31:30;5.28;;;2.88;;
71236;SDS011;58984;51.960;5.582;2022-11-02T05:33:55;7.65;;;3.70;;
71236;SDS011;58984;51.960;5.582;2022-11-02T05:36:21;10.50;;;3.33;;
71236;SDS011;58984;51.960;5.582;2022-11-02T05:38:46;9.95;;;3.42;;
71236;SDS011;58984;51.960;5.582;2022-11-02T05:41:12;8.80;;;3.28;;
71236;SDS011;58984;51.960;5.582;2022-11-02T05:43:38;11.02;;;3.72;;
71236;SDS011;58984;51.960;5.582;2022-11-02T05:46:03;8.80;;;3.45;;
71236;SDS011;58984;51.960;5.582;2022-11-02T05:48:30;8.18;;;3.35;;
71236;SDS011;58984;51.960;5.582;2022-11-02T05:50:57;11.75;;;3.75;;
71236;SDS011;58984;51.960;5.582;2022-11-02T05:53:24;7.78;;;3.28;;
71236;SDS011;58984;51.960;5.582;2022-11-02T05:55:50;12.18;;;3.95;;
71236;SDS011;58984;51.960;5.582;2022-11-02T05:58:17;7.45;;;3.38;;
71236;SDS011;58984;51.960;5.582;2022-11-02T06:00:42;10.13;;;3.55;;
71236;SDS011;58984;51.960;5.582;2022-11-02T06:03:08;10.38;;;3.05;;
71236;SDS011;58984;51.960;5.582;2022-11-02T06:05:33;6.00;;;3.35;;
71236;SDS011;58984;51.960;5.582;2022-11-02T06:07:59;9.88;;;3.05;;
71236;SDS011;58984;51.960;5.582;2022-11-02T06:10:26;9.07;;;3.75;;
71236;SDS011;58984;51.960;5.582;2022-11-02T06:12:53;6.65;;;2.97;;
71236;SDS011;58984;51.960;5.582;2022-11-02T06:15:23;9.40;;;3.47;;
71236;SDS011;58984;51.960;5.582;2022-11-02T06:17:48;6.20;;;3.33;;
71236;SDS011;58984;51.960;5.582;2022-11-02T06:20:15;11.13;;;3.38;;
71236;SDS011;58984;51.960;5.582;2022-11-02T06:22:41;8.60;;;3.90;;
71236;SDS011;58984;51.960;5.582;2022-11-02T06:25:08;7.80;;;2.85;;
71236;SDS011;58984;51.960;5.582;2022-11-02T06:27:34;7.93;;;3.28;;
71236;SDS011;58984;51.960;5.582;2022-11-02T06:30:00;6.25;;;3.13;;
71236;SDS011;58984;51.960;5.582;2022-11-02T06:32:26;7.55;;;3.22;;
71236;SDS011;58984;51.960;5.582;2022-11-02T06:34:51;9.80;;;2.88;;
71236;SDS011;58984;51.960;5.582;2022-11-02T06:37:17;7.32;;;2.88;;
71236;SDS011;58984;51.960;5.582;2022-11-02T06:39:42;10.20;;;3.33;;
71236;SDS011;58984;51.960;5.582;2022-11-02T06:42:08;6.75;;;3.00;;
71236;SDS011;58984;51.960;5.582;2022-11-02T06:44:34;6.10;;;2.97;;
71236;SDS011;58984;51.960;5.582;2022-11-02T06:46:59;7.55;;;3.45;;
71236;SDS011;58984;51.960;5.582;2022-11-02T06:49:25;9.32;;;3.42;;
71236;SDS011;58984;51.960;5.582;2022-11-02T06:51:50;5.40;;;2.70;;
71236;SDS011;58984;51.960;5.582;2022-11-02T06:54:16;6.95;;;3.00;;
71236;SDS011;58984;51.960;5.582;2022-11-02T06:56:42;6.90;;;2.88;;
71236;SDS011;58984;51.960;5.582;2022-11-02T06:59:07;10.23;;;3.40;;
71236;SDS011;58984;51.960;5.582;2022-11-02T07:01:33;11.05;;;3.50;;
71236;SDS011;58984;51.960;5.582;2022-11-02T07:03:59;6.30;;;3.00;;
71236;SDS011;58984;51.960;5.582;2022-11-02T07:06:26;9.63;;;3.35;;
71236;SDS011;58984;51.960;5.582;2022-11-02T07:08:51;9.48;;;3.28;;
71236;SDS011;58984;51.960;5.582;2022-11-02T07:11:17;6.00;;;3.03;;
71236;SDS011;58984;51.960;5.582;2022-11-02T07:13:43;6.60;;;2.90;;
71236;SDS011;58984;51.960;5.582;2022-11-02T07:16:09;6.55;;;3.03;;
71236;SDS011;58984;51.960;5.582;2022-11-02T07:18:34;10.20;;;3.03;;
71236;SDS011;58984;51.960;5.582;2022-11-02T07:21:00;7.18;;;3.03;;
71236;SDS011;58984;51.960;5.582;2022-11-02T07:23:26;6.60;;;3.40;;
71236;SDS011;58984;51.960;5.582;2022-11-02T07:25:52;10.43;;;3.10;;
71236;SDS011;58984;51.960;5.582;2022-11-02T07:28:18;10.70;;;3.33;;
71236;SDS011;58984;51.960;5.582;2022-11-02T07:30:43;7.65;;;3.13;;
71236;SDS011;58984;51.960;5.582;2022-11-02T07:33:09;8.02;;;2.60;;
71236;SDS011;58984;51.960;5.582;2022-11-02T07:35:35;9.55;;;3.40;;
71236;SDS011;58984;51.960;5.582;2022-11-02T07:38:04;8.30;;;2.92;;
71236;SDS011;58984;51.960;5.582;2022-11-02T07:40:31;7.55;;;3.05;;
71236;SDS011;58984;51.960;5.582;2022-11-02T07:42:59;5.30;;;2.67;;
71236;SDS011;58984;51.960;5.582;2022-11-02T07:45:25;7.72;;;2.92;;
71236;SDS011;58984;51.960;5.582;2022-11-02T07:47:53;7.93;;;2.78;;
71236;SDS011;58984;51.960;5.582;2022-11-02T07:50:19;7.35;;;2.83;;
71236;SDS011;58984;51.960;5.582;2022-11-02T07:52:47;7.35;;;2.60;;
71236;SDS011;58984;51.960;5.582;2022-11-02T07:55:18;8.38;;;3.05;;
71236;SDS011;58984;51.960;5.582;2022-11-02T07:57:55;8.57;;;2.65;;
71236;SDS011;58984;51.960;5.582;2022-11-02T08:00:24;7.47;;;3.00;;
71236;SDS011;58984;51.960;5.582;2022-11-02T08:02:55;7.20;;;3.28;;
71236;SDS011;58984;51.960;5.582;2022-11-02T08:05:22;9.75;;;3.42;;
71236;SDS011;58984;51.960;5.582;2022-11-02T08:07:55;7.60;;;2.85;;
71236;SDS011;58984;51.960;5.582;2022-11-02T08:10:21;5.78;;;2.50;;
71236;SDS011;58984;51.960;5.582;2022-11-02T08:12:47;5.65;;;2.70;;
71236;SDS011;58984;51.960;5.582;2022-11-02T08:15:13;9.43;;;3.08;;
71236;SDS011;58984;51.960;5.582;2022-11-02T08:17:39;8.50;;;2.72;;
71236;SDS011;58984;51.960;5.582;2022-11-02T08:20:04;11.98;;;2.85;;
71236;SDS011;58984;51.960;5.582;2022-11-02T08:22:31;8.48;;;3.10;;
71236;SDS011;58984;51.960;5.582;2022-11-02T08:25:00;8.80;;;2.72;;
71236;SDS011;58984;51.960;5.582;2022-11-02T08:27:26;8.38;;;2.63;;
71236;SDS011;58984;51.960;5.582;2022-11-02T08:29:52;8.13;;;2.13;;
71236;SDS011;58984;51.960;5.582;2022-11-02T08:32:17;4.65;;;2.50;;
71236;SDS011;58984;51.960;5.582;2022-11-02T08:34:43;7.20;;;2.50;;
71236;SDS011;58984;51.960;5.582;2022-11-02T08:37:09;6.88;;;2.60;;
71236;SDS011;58984;51.960;5.582;2022-11-02T08:39:34;9.43;;;2.83;;
71236;SDS011;58984;51.960;5.582;2022-11-02T08:42:00;7.93;;;2.60;;
71236;SDS011;58984;51.960;5.582;2022-11-02T08:44:25;8.52;;;2.92;;
71236;SDS011;58984;51.960;5.582;2022-11-02T08:46:51;5.40;;;2.60;;
71236;SDS011;58984;51.960;5.582;2022-11-02T08:49:16;3.88;;;2.38;;
71236;SDS011;58984;51.960;5.582;2022-11-02T08:51:43;7.18;;;2.97;;
71236;SDS011;58984;51.960;5.582;2022-11-02T08:54:09;5.22;;;2.50;;
71236;SDS011;58984;51.960;5.582;2022-11-02T08:56:35;11.88;;;3.38;;
71236;SDS011;58984;51.960;5.582;2022-11-02T08:59:01;7.70;;;3.13;;
71236;SDS011;58984;51.960;5.582;2022-11-02T09:01:26;3.78;;;2.40;;
71236;SDS011;58984;51.960;5.582;2022-11-02T09:03:52;7.85;;;2.85;;
71236;SDS011;58984;51.960;5.582;2022-11-02T09:06:17;8.60;;;3.03;;
71236;SDS011;58984;51.960;5.582;2022-11-02T09:08:43;7.55;;;2.78;;
71236;SDS011;58984;51.960;5.582;2022-11-02T09:11:09;7.28;;;3.30;;
71236;SDS011;58984;51.960;5.582;2022-11-02T09:13:34;9.75;;;2.83;;
71236;SDS011;58984;51.960;5.582;2022-11-02T09:16:01;7.18;;;2.40;;
71236;SDS011;58984;51.960;5.582;2022-11-02T09:18:27;6.07;;;3.25;;
71236;SDS011;58984;51.960;5.582;2022-11-02T09:20:53;7.43;;;3.03;;
71236;SDS011;58984;51.960;5.582;2022-11-02T09:23:19;7.95;;;2.67;;
71236;SDS011;58984;51.960;5.582;2022-11-02T09:25:46;13.23;;;3.33;;
71236;SDS011;58984;51.960;5.582;2022-11-02T09:28:12;11.88;;;3.30;;
71236;SDS011;58984;51.960;5.582;2022-11-02T09:30:39;9.23;;;3.53;;
71236;SDS011;58984;51.960;5.582;2022-11-02T09:33:05;8.50;;;3.03;;
71236;SDS011;58984;51.960;5.582;2022-11-02T09:35:35;8.07;;;3.40;;
71236;SDS011;58984;51.960;5.582;2022-11-02T09:38:02;8.40;;;3.20;;
71236;SDS011;58984;51.960;5.582;2022-11-02T09:40:38;4.90;;;2.42;;
71236;SDS011;58984;51.960;5.582;2022-11-02T09:48:53;7.72;;;2.92;;
71236;SDS011;58984;51.960;5.582;2022-11-02T09:51:30;7.45;;;3.17;;
71236;SDS011;58984;51.960;5.582;2022-11-02T09:54:01;7.05;;;2.60;;
71236;SDS011;58984;51.960;5.582;2022-11-02T09:56:37;7.95;;;2.70;;
71236;SDS011;58984;51.960;5.582;2022-11-02T09:59:10;5.95;;;2.78;;
71236;SDS011;58984;51.960;5.582;2022-11-02T10:01:45;8.25;;;2.78;;
71236;SDS011;58984;51.960;5.582;2022-11-02T10:12:27;8.35;;;2.42;;
71236;SDS011;58984;51.960;5.582;2022-11-02T10:15:03;7.78;;;2.67;;
71236;SDS011;58984;51.960;5.582;2022-11-02T10:17:35;5.72;;;2.65;;
71236;SDS011;58984;51.960;5.582;2022-11-02T10:20:13;5.68;;;2.45;;
71236;SDS011;58984;51.960;5.582;2022-11-02T10:22:48;8.55;;;2.58;;
71236;SDS011;58984;51.960;5.582;2022-11-02T10:25:14;11.55;;;2.30;;
71236;SDS011;58984;51.960;5.582;2022-11-02T10:27:40;5.07;;;2.22;;
71236;SDS011;58984;51.960;5.582;2022-11-02T10:30:13;6.60;;;3.00;;
71236;SDS011;58984;51.960;5.582;2022-11-02T10:32:42;6.78;;;2.97;;
71236;SDS011;58984;51.960;5.582;2022-11-02T10:37:53;6.07;;;2.25;;
71236;SDS011;58984;51.960;5.582;2022-11-02T10:43:14;7.20;;;2.33;;
71236;SDS011;58984;51.960;5.582;2022-11-02T10:51:13;7.88;;;3.28;;
71236;SDS011;58984;51.960;5.582;2022-11-02T10:53:49;4.72;;;2.13;;
71236;SDS011;58984;51.960;5.582;2022-11-02T10:56:17;6.30;;;2.45;;
71236;SDS011;58984;51.960;5.582;2022-11-02T11:01:21;5.72;;;2.65;;
71236;SDS011;58984;51.960;5.582;2022-11-02T11:03:58;11.60;;;2.95;;
71236;SDS011;58984;51.960;5.582;2022-11-02T11:06:29;5.25;;;2.50;;
71236;SDS011;58984;51.960;5.582;2022-11-02T11:08:59;4.60;;;2.17;;
71236;SDS011;58984;51.960;5.582;2022-11-02T11:11:38;12.73;;;2.90;;
71236;SDS011;58984;51.960;5.582;2022-11-02T11:14:16;7.82;;;3.20;;
71236;SDS011;58984;51.960;5.582;2022-11-02T11:16:49;6.43;;;2.75;;
71236;SDS011;58984;51.960;5.582;2022-11-02T11:19:28;5.60;;;2.83;;
71236;SDS011;58984;51.960;5.582;2022-11-02T11:21:58;5.63;;;2.47;;
71236;SDS011;58984;51.960;5.582;2022-11-02T11:24:27;11.45;;;2.80;;
71236;SDS011;58984;51.960;5.582;2022-11-02T11:29:32;6.28;;;2.78;;
71236;SDS011;58984;51.960;5.582;2022-11-02T11:31:59;5.75;;;2.80;;
71236;SDS011;58984;51.960;5.582;2022-11-02T11:34:27;7.43;;;3.05;;
71236;SDS011;58984;51.960;5.582;2022-11-02T11:37:05;5.78;;;2.58;;
71236;SDS011;58984;51.960;5.582;2022-11-02T11:39:39;6.82;;;2.72;;
71236;SDS011;58984;51.960;5.582;2022-11-02T11:42:12;3.55;;;2.40;;
71236;SDS011;58984;51.960;5.582;2022-11-02T11:44:51;9.73;;;3.03;;
71236;SDS011;58984;51.960;5.582;2022-11-02T11:47:54;11.70;;;3.13;;
71236;SDS011;58984;51.960;5.582;2022-11-02T11:50:37;9.82;;;2.83;;
71236;SDS011;58984;51.960;5.582;2022-11-02T11:55:53;8.55;;;2.53;;
71236;SDS011;58984;51.960;5.582;2022-11-02T11:58:25;11.82;;;3.33;;
71236;SDS011;58984;51.960;5.582;2022-11-02T12:09:10;7.70;;;3.03;;
71236;SDS011;58984;51.960;5.582;2022-11-02T12:17:14;6.47;;;2.47;;
71236;SDS011;58984;51.960;5.582;2022-11-02T12:22:28;9.20;;;2.70;;
71236;SDS011;58984;51.960;5.582;2022-11-02T12:30:39;8.43;;;3.10;;
71236;SDS011;58984;51.960;5.582;2022-11-02T12:38:50;7.20;;;2.97;;
71236;SDS011;58984;51.960;5.582;2022-11-02T12:41:25;7.03;;;2.53;;
71236;SDS011;58984;51.960;5.582;2022-11-02T12:47:20;6.88;;;3.33;;
71236;SDS011;58984;51.960;5.582;2022-11-02T12:55:00;10.40;;;2.90;;
71236;SDS011;58984;51.960;5.582;2022-11-02T12:57:30;5.53;;;2.88;;
71236;SDS011;58984;51.960;5.582;2022-11-02T13:00:00;7.97;;;2.88;;
71236;SDS011;58984;51.960;5.582;2022-11-02T13:02:58;5.30;;;2.35;;
71236;SDS011;58984;51.960;5.582;2022-11-02T13:05:31;8.13;;;2.55;;
71236;SDS011;58984;51.960;5.582;2022-11-02T13:08:05;7.47;;;2.55;;
71236;SDS011;58984;51.960;5.582;2022-11-02T13:13:16;5.97;;;2.83;;
71236;SDS011;58984;51.960;5.582;2022-11-02T13:15:45;6.13;;;2.60;;
71236;SDS011;58984;51.960;5.582;2022-11-02T13:18:17;7.43;;;2.58;;
71236;SDS011;58984;51.960;5.582;2022-11-02T13:20:49;5.18;;;2.55;;
71236;SDS011;58984;51.960;5.582;2022-11-02T13:25:58;7.93;;;2.35;;
71236;SDS011;58984;51.960;5.582;2022-11-02T13:31:52;6.45;;;2.28;;
71236;SDS011;58984;51.960;5.582;2022-11-02T13:34:00;12.73;;;3.55;;
71236;SDS011;58984;51.960;5.582;2022-11-02T13:36:30;6.45;;;2.78;;
71236;SDS011;58984;51.960;5.582;2022-11-02T13:39:20;4.03;;;2.10;;
71236;SDS011;58984;51.960;5.582;2022-11-02T13:42:05;7.63;;;2.92;;
71236;SDS011;58984;51.960;5.582;2022-11-02T13:44:49;5.13;;;2.60;;
71236;SDS011;58984;51.960;5.582;2022-11-02T13:50:06;7.75;;;2.95;;
71236;SDS011;58984;51.960;5.582;2022-11-02T13:52:58;6.53;;;2.88;;
71236;SDS011;58984;51.960;5.582;2022-11-02T13:55:32;7.60;;;3.00;;
71236;SDS011;58984;51.960;5.582;2022-11-02T14:00:49;7.57;;;2.83;;
71236;SDS011;58984;51.960;5.582;2022-11-02T14:03:21;7.32;;;2.80;;
71236;SDS011;58984;51.960;5.582;2022-11-02T14:05:55;3.42;;;2.47;;
71236;SDS011;58984;51.960;5.582;2022-11-02T14:08:27;9.27;;;2.90;;
71236;SDS011;58984;51.960;5.582;2022-11-02T14:11:23;7.45;;;2.90;;
71236;SDS011;58984;51.960;5.582;2022-11-02T14:14:06;7.90;;;3.10;;
71236;SDS011;58984;51.960;5.582;2022-11-02T14:22:02;7.25;;;3.15;;
71236;SDS011;58984;51.960;5.582;2022-11-02T14:26:59;9.23;;;3.63;;
71236;SDS011;58984;51.960;5.582;2022-11-02T14:48:31;9.18;;;3.30;;
71236;SDS011;58984;51.960;5.582;2022-11-02T14:51:22;5.47;;;3.47;;
71236;SDS011;58984;51.960;5.582;2022-11-02T14:56:47;9.65;;;3.33;;
71236;SDS011;58984;51.960;5.582;2022-11-02T14:59:17;7.97;;;3.42;;
71236;SDS011;58984;51.960;5.582;2022-11-02T15:01:53;9.38;;;3.22;;
71236;SDS011;58984;51.960;5.582;2022-11-02T15:04:22;6.07;;;2.78;;
71236;SDS011;58984;51.960;5.582;2022-11-02T15:06:50;7.35;;;3.45;;
71236;SDS011;58984;51.960;5.582;2022-11-02T15:14:59;9.43;;;3.10;;
71236;SDS011;58984;51.960;5.582;2022-11-02T15:22:52;8.57;;;3.28;;
71236;SDS011;58984;51.960;5.582;2022-11-02T15:25:35;7.13;;;3.00;;
71236;SDS011;58984;51.960;5.582;2022-11-02T15:28:06;10.65;;;3.70;;
71236;SDS011;58984;51.960;5.582;2022-11-02T15:30:37;5.88;;;2.95;;
71236;SDS011;58984;51.960;5.582;2022-11-02T15:33:10;7.10;;;3.03;;
71236;SDS011;58984;51.960;5.582;2022-11-02T15:35:43;10.43;;;3.60;;
71236;SDS011;58984;51.960;5.582;2022-11-02T15:38:10;9.20;;;3.17;;
71236;SDS011;58984;51.960;5.582;2022-11-02T15:40:47;11.68;;;3.33;;
71236;SDS011;58984;51.960;5.582;2022-11-02T15:52:38;9.30;;;3.70;;
71236;SDS011;58984;51.960;5.582;2022-11-02T15:55:31;12.45;;;3.65;;
71236;SDS011;58984;51.960;5.582;2022-11-02T15:58:10;8.90;;;3.60;;
71236;SDS011;58984;51.960;5.582;2022-11-02T16:01:14;10.13;;;4.35;;
71236;SDS011;58984;51.960;5.582;2022-11-02T16:03:46;11.10;;;4.03;;
71236;SDS011;58984;51.960;5.582;2022-11-02T16:06:33;10.80;;;3.83;;
71236;SDS011;58984;51.960;5.582;2022-11-02T16:09:02;12.90;;;3.97;;
71236;SDS011;58984;51.960;5.582;2022-11-02T16:12:09;13.20;;;3.95;;
71236;SDS011;58984;51.960;5.582;2022-11-02T16:14:37;11.60;;;3.90;;
71236;SDS011;58984;51.960;5.582;2022-11-02T16:17:03;11.82;;;3.67;;
71236;SDS011;58984;51.960;5.582;2022-11-02T16:19:29;9.65;;;4.32;;
71236;SDS011;58984;51.960;5.582;2022-11-02T16:21:58;10.98;;;4.20;;
71236;SDS011;58984;51.960;5.582;2022-11-02T16:24:23;10.20;;;4.30;;
71236;SDS011;58984;51.960;5.582;2022-11-02T16:26:49;10.10;;;3.67;;
71236;SDS011;58984;51.960;5.582;2022-11-02T16:29:20;8.45;;;3.83;;
71236;SDS011;58984;51.960;5.582;2022-11-02T16:31:51;11.73;;;3.92;;
71236;SDS011;58984;51.960;5.582;2022-11-02T16:34:19;11.63;;;4.60;;
71236;SDS011;58984;51.960;5.582;2022-11-02T16:36:48;13.25;;;4.45;;
71236;SDS011;58984;51.960;5.582;2022-11-02T16:39:28;9.88;;;4.15;;
71236;SDS011;58984;51.960;5.582;2022-11-02T16:42:00;8.32;;;4.05;;
71236;SDS011;58984;51.960;5.582;2022-11-02T16:44:31;9.25;;;4.13;;
71236;SDS011;58984;51.960;5.582;2022-11-02T16:50:18;12.57;;;4.10;;
71236;SDS011;58984;51.960;5.582;2022-11-02T16:52:19;8.35;;;4.47;;
71236;SDS011;58984;51.960;5.582;2022-11-02T16:54:47;10.40;;;4.30;;
71236;SDS011;58984;51.960;5.582;2022-11-02T17:02:23;12.80;;;4.60;;
71236;SDS011;58984;51.960;5.582;2022-11-02T17:05:20;12.52;;;5.10;;
71236;SDS011;58984;51.960;5.582;2022-11-02T17:08:33;16.23;;;4.28;;
71236;SDS011;58984;51.960;5.582;2022-11-02T17:11:19;10.52;;;4.40;;
71236;SDS011;58984;51.960;5.582;2022-11-02T17:13:48;9.00;;;4.70;;
71236;SDS011;58984;51.960;5.582;2022-11-02T17:16:14;11.95;;;4.65;;
71236;SDS011;58984;51.960;5.582;2022-11-02T17:18:40;8.18;;;4.38;;
71236;SDS011;58984;51.960;5.582;2022-11-02T17:23:39;9.27;;;3.97;;
71236;SDS011;58984;51.960;5.582;2022-11-02T17:28:46;8.65;;;4.32;;
71236;SDS011;58984;51.960;5.582;2022-11-02T17:31:17;8.75;;;4.20;;
71236;SDS011;58984;51.960;5.582;2022-11-02T17:33:45;10.23;;;3.95;;
71236;SDS011;58984;51.960;5.582;2022-11-02T17:36:11;14.05;;;4.07;;
71236;SDS011;58984;51.960;5.582;2022-11-02T17:38:38;11.35;;;3.88;;
71236;SDS011;58984;51.960;5.582;2022-11-02T17:41:04;11.98;;;3.90;;
71236;SDS011;58984;51.960;5.582;2022-11-02T17:43:50;11.65;;;4.30;;
71236;SDS011;58984;51.960;5.582;2022-11-02T17:46:15;10.55;;;4.25;;
71236;SDS011;58984;51.960;5.582;2022-11-02T17:48:41;10.52;;;3.55;;
71236;SDS011;58984;51.960;5.582;2022-11-02T17:51:07;8.07;;;3.83;;
71236;SDS011;58984;51.960;5.582;2022-11-02T17:53:35;14.20;;;4.30;;
71236;SDS011;58984;51.960;5.582;2022-11-02T17:56:01;9.02;;;3.80;;
71236;SDS011;58984;51.960;5.582;2022-11-02T17:58:26;9.60;;;4.18;;